Terminal Aerodrome Forecast
Issued by NWS

Current Version | Previous Version | Graphics & Text | Print | Product List | Glossary On
Versions: 1 2 3 4 5 6 7 8 9 10 11 12 13 14 15 16 17 18 19 20
000
FTUS41 KRLX 241700
TAFCKB
TAF
KCKB 241740Z 2418/2518 01007KT P6SM BKN035
     FM250000 VRB03KT P6SM SCT035
     FM250400 00000KT 4SM BR FEW250
     FM250700 00000KT 1 1/2SM BR FEW250
     FM250800 00000KT 1/2SM FG FEW250
     FM251300 00000KT 5SM BR FEW250
     FM251400 00000KT P6SM FEW040=

USA.gov is the U.S. government's official web portal to all federal, state and local government web resources and services.